Time;durP1;ratioP1;P1;durP2;ratioP2;P2;SDS_P1;SDS_P2;PMS_P1;PMS_P2;Temp;Humidity;BMP_temperature;BMP_pressure;BME280_temperature;BME280_humidity;BME280_pressure;Samples;Min_cycle;Max_cycle;Signal;HPM_P1;HPM_P2
2021/11/07 00:01:54;;;;;;;4.30;4.10;;;11.90;99.90;;;;;;5015105;28;20949;-73
2021/11/07 00:09:38;;;;;;;4.40;4.00;;;11.90;99.90;;;;;;5014932;28;20472;-73
2021/11/07 00:12:27;;;;;;;4.60;4.20;;;11.90;99.90;;;;;;5015661;28;20175;-72
2021/11/07 00:14:53;;;;;;;4.50;4.10;;;11.90;99.90;;;;;;5015175;28;20418;-71
2021/11/07 00:17:25;;;;;;;4.10;3.90;;;11.90;99.90;;;;;;5015446;28;20890;-72
2021/11/07 00:19:56;;;;;;;4.40;4.10;;;12.00;99.90;;;;;;5014812;28;20398;-72
2021/11/07 00:27:56;;;;;;;4.17;3.97;;;11.80;99.90;;;;;;5014644;28;20404;-72
2021/11/07 00:30:35;;;;;;;4.70;4.40;;;11.80;99.90;;;;;;5015268;28;20852;-72
2021/11/07 00:35:57;;;;;;;4.67;4.00;;;11.80;99.90;;;;;;5014840;28;20773;-73
2021/11/07 00:38:31;;;;;;;4.70;4.40;;;11.80;99.90;;;;;;5015051;28;20408;-72
2021/11/07 00:43:46;;;;;;;5.60;5.10;;;11.70;99.90;;;;;;4997314;28;20466;-72
2021/11/07 00:48:46;;;;;;;6.67;5.40;;;11.60;99.90;;;;;;5014154;28;20420;-72
2021/11/07 00:51:23;;;;;;;5.77;5.27;;;11.60;99.90;;;;;;5014809;28;20501;-72
2021/11/07 00:59:08;;;;;;;5.50;5.10;;;11.50;99.90;;;;;;5014378;28;20176;-72
2021/11/07 01:01:39;;;;;;;6.77;6.20;;;11.50;99.90;;;;;;5014016;28;20446;-72
2021/11/07 01:04:07;;;;;;;6.03;5.63;;;11.40;99.90;;;;;;5014494;28;20402;-72
2021/11/07 01:06:34;;;;;;;6.00;5.40;;;11.50;99.90;;;;;;5013842;28;20765;-72
2021/11/07 01:09:01;;;;;;;6.57;6.00;;;11.40;99.90;;;;;;5014419;28;20500;-72
2021/11/07 01:11:27;;;;;;;6.77;6.17;;;11.50;99.90;;;;;;5014423;28;20464;-72
2021/11/07 01:13:53;;;;;;;6.50;6.00;;;11.50;99.90;;;;;;5013731;28;20429;-72
2021/11/07 01:16:19;;;;;;;6.33;5.83;;;11.50;99.90;;;;;;5014557;28;20513;-72
2021/11/07 01:18:46;;;;;;;5.80;5.30;;;11.60;99.90;;;;;;5013672;28;20178;-72
2021/11/07 01:21:14;;;;;;;6.63;6.13;;;11.50;99.90;;;;;;4996719;28;20916;-72
2021/11/07 01:23:53;;;;;;;7.00;6.40;;;11.50;99.90;;;;;;4979808;28;20924;-72
2021/11/07 01:26:29;;;;;;;6.20;5.80;;;11.50;99.90;;;;;;5014095;28;20452;-72
2021/11/07 01:29:03;;;;;;;6.27;5.70;;;11.40;99.90;;;;;;5013772;28;20420;-72
2021/11/07 01:31:29;;;;;;;5.40;5.00;;;11.30;99.90;;;;;;5014029;28;20409;-72
2021/11/07 01:33:57;;;;;;;6.43;5.80;;;11.30;99.90;;;;;;5013342;28;20481;-72
2021/11/07 01:39:01;;;;;;;5.77;5.37;;;11.30;99.90;;;;;;5013298;28;20426;-72
2021/11/07 01:41:32;;;;;;;5.40;4.90;;;11.30;99.90;;;;;;5013226;28;20726;-71
2021/11/07 01:43:59;;;;;;;5.50;5.10;;;11.40;99.90;;;;;;5013506;28;20440;-72
2021/11/07 01:46:28;;;;;;;5.30;4.80;;;11.40;99.90;;;;;;5013644;28;20964;-72
2021/11/07 01:51:28;;;;;;;4.60;4.30;;;11.40;99.90;;;;;;5013799;28;20833;-71
2021/11/07 01:54:00;;;;;;;5.20;4.80;;;11.30;99.90;;;;;;5013012;28;20747;-72
2021/11/07 01:56:26;;;;;;;4.60;4.30;;;11.40;99.90;;;;;;5013423;28;20802;-72
2021/11/07 01:58:52;;;;;;;4.90;4.57;;;11.40;99.90;;;;;;5012630;28;20503;-72
2021/11/07 02:01:23;;;;;;;5.10;4.80;;;11.50;99.90;;;;;;5013558;28;20857;-72
2021/11/07 02:03:50;;;;;;;4.63;4.33;;;11.40;99.90;;;;;;5012789;28;20179;-72
2021/11/07 02:06:16;;;;;;;4.30;4.10;;;11.50;99.90;;;;;;5013318;28;20508;-72
2021/11/07 02:08:42;;;;;;;4.87;4.57;;;11.50;99.90;;;;;;5013030;28;20426;-73
2021/11/07 02:11:08;;;;;;;4.50;4.30;;;11.50;99.90;;;;;;5013234;28;20414;-72
2021/11/07 02:13:33;;;;;;;4.80;4.50;;;11.40;99.90;;;;;;5013276;28;20771;-72
2021/11/07 02:15:59;;;;;;;4.40;4.20;;;11.50;99.90;;;;;;5012375;28;20183;-72
2021/11/07 02:18:25;;;;;;;4.20;4.00;;;11.50;99.90;;;;;;5013402;28;20178;-72
2021/11/07 02:20:52;;;;;;;4.77;4.50;;;11.50;99.90;;;;;;5012431;28;20186;-72
2021/11/07 02:23:21;;;;;;;4.50;4.20;;;11.60;99.90;;;;;;5013081;28;20443;-72
2021/11/07 02:25:50;;;;;;;3.80;3.60;;;11.60;99.90;;;;;;5012112;28;20449;-72
2021/11/07 02:28:25;;;;;;;3.80;3.60;;;11.60;99.90;;;;;;4995796;28;20425;-72
2021/11/07 02:30:52;;;;;;;4.10;3.90;;;11.60;99.90;;;;;;5012762;28;20410;-72
2021/11/07 02:33:18;;;;;;;3.83;3.63;;;11.60;99.90;;;;;;5013062;28;20503;-72
2021/11/07 02:35:44;;;;;;;3.93;3.73;;;11.60;99.90;;;;;;4994942;28;20571;-72
2021/11/07 02:38:09;;;;;;;3.50;3.30;;;11.60;99.90;;;;;;5013065;28;20417;-72
2021/11/07 02:40:35;;;;;;;4.00;3.70;;;11.60;99.90;;;;;;5012924;28;20436;-72
2021/11/07 02:43:01;;;;;;;3.80;3.60;;;11.60;99.90;;;;;;5011982;28;20239;-72
2021/11/07 02:45:29;;;;;;;3.63;3.43;;;11.60;99.90;;;;;;5012929;28;20220;-72
2021/11/07 02:47:55;;;;;;;3.73;3.53;;;11.60;99.90;;;;;;4994751;28;20528;-72
2021/11/07 02:50:21;;;;;;;4.17;3.87;;;11.60;99.90;;;;;;5012526;28;20409;-72
2021/11/07 02:52:49;;;;;;;3.70;3.50;;;11.60;99.90;;;;;;5012473;28;20417;-72
2021/11/07 02:55:16;;;;;;;3.80;3.60;;;11.70;99.90;;;;;;5012788;28;20417;-72
2021/11/07 02:57:45;;;;;;;3.83;3.63;;;11.70;99.90;;;;;;5012033;28;20430;-72
2021/11/07 03:00:12;;;;;;;3.87;3.67;;;11.70;99.90;;;;;;5012738;28;20454;-72
2021/11/07 03:02:38;;;;;;;4.80;4.50;;;11.60;99.90;;;;;;5012691;28;20789;-72
2021/11/07 03:05:07;;;;;;;4.20;4.00;;;11.60;99.90;;;;;;5012643;28;20465;-72
2021/11/07 03:07:33;;;;;;;5.33;4.93;;;11.60;99.90;;;;;;5012667;28;20411;-72
2021/11/07 03:09:59;;;;;;;5.10;4.80;;;11.60;99.90;;;;;;4994503;28;20981;-72
2021/11/07 03:12:25;;;;;;;5.30;5.00;;;11.60;99.90;;;;;;5012218;28;20413;-72
2021/11/07 03:14:52;;;;;;;5.60;5.17;;;11.60;99.90;;;;;;4994604;28;20185;-72
2021/11/07 03:17:25;;;;;;;5.83;5.53;;;11.70;99.90;;;;;;5012320;28;20426;-72
2021/11/07 03:19:53;;;;;;;6.23;5.83;;;11.70;99.90;;;;;;5012076;28;20456;-72
2021/11/07 03:22:22;;;;;;;5.80;5.40;;;11.70;99.90;;;;;;4995069;28;20866;-72
2021/11/07 03:24:53;;;;;;;5.67;5.33;;;11.70;99.90;;;;;;5011938;28;20936;-72
2021/11/07 03:27:29;;;;;;;5.77;5.40;;;11.70;99.90;;;;;;5012574;28;20759;-72
2021/11/07 03:29:57;;;;;;;5.43;5.13;;;11.60;99.90;;;;;;5011923;28;20401;-72
2021/11/07 03:32:29;;;;;;;5.63;5.33;;;11.70;99.90;;;;;;5014135;28;20418;-72
2021/11/07 03:34:58;;;;;;;6.70;6.20;;;11.70;99.90;;;;;;5015914;28;20405;-72
2021/11/07 03:37:26;;;;;;;6.37;6.07;;;11.70;99.90;;;;;;5016126;28;20455;-72
2021/11/07 03:39:56;;;;;;;6.93;6.53;;;11.70;99.90;;;;;;5015491;28;20425;-72
2021/11/07 03:42:23;;;;;;;7.73;7.13;;;11.70;99.90;;;;;;5015776;28;20520;-72
2021/11/07 03:44:50;;;;;;;9.20;8.60;;;11.70;99.90;;;;;;4997900;28;20461;-72
2021/11/07 03:47:15;;;;;;;7.90;7.40;;;11.70;99.90;;;;;;5015952;28;20413;-72
2021/11/07 03:49:42;;;;;;;8.63;8.03;;;11.70;99.90;;;;;;5015459;28;20416;-74
2021/11/07 03:52:10;;;;;;;8.97;8.37;;;11.70;99.90;;;;;;5015887;28;20199;-72
2021/11/07 03:54:37;;;;;;;8.67;8.07;;;11.70;99.90;;;;;;5015827;28;20417;-72
2021/11/07 03:57:04;;;;;;;8.50;7.90;;;11.60;99.90;;;;;;5015144;28;20417;-72
2021/11/07 03:59:31;;;;;;;9.13;8.53;;;11.70;99.90;;;;;;5015725;28;20464;-73
2021/11/07 04:01:57;;;;;;;9.50;8.90;;;11.70;99.90;;;;;;4997616;28;20414;-73
2021/11/07 04:04:23;;;;;;;9.40;8.70;;;11.80;99.90;;;;;;5015601;28;20428;-72
2021/11/07 04:06:49;;;;;;;9.13;8.53;;;11.70;99.90;;;;;;5015048;28;20406;-72
2021/11/07 04:09:15;;;;;;;10.20;9.40;;;11.70;99.90;;;;;;4998067;28;20304;-72
2021/11/07 04:11:42;;;;;;;9.43;8.63;;;11.70;99.90;;;;;;5015482;28;20471;-72
2021/11/07 04:14:09;;;;;;;10.20;9.40;;;11.70;99.90;;;;;;5015503;28;20180;-72
2021/11/07 04:16:37;;;;;;;9.53;8.60;;;11.70;99.90;;;;;;5015401;28;20424;-72
2021/11/07 04:19:03;;;;;;;9.43;8.83;;;11.70;99.90;;;;;;5014492;28;20664;-72
2021/11/07 04:21:29;;;;;;;10.70;9.70;;;11.60;99.90;;;;;;5014959;28;20932;-72
2021/11/07 04:23:54;;;;;;;9.80;9.10;;;11.70;99.90;;;;;;5014449;28;20410;-72
2021/11/07 04:26:22;;;;;;;9.83;9.03;;;11.70;99.90;;;;;;5015529;28;20234;-72
2021/11/07 04:28:48;;;;;;;9.70;9.00;;;11.70;99.90;;;;;;5014347;28;20178;-73
2021/11/07 04:31:14;;;;;;;10.87;10.00;;;11.70;99.90;;;;;;5015177;28;20415;-72
2021/11/07 04:33:40;;;;;;;12.23;11.23;;;11.60;99.90;;;;;;5015096;28;20410;-72
2021/11/07 04:36:06;;;;;;;10.33;9.43;;;11.60;99.90;;;;;;5014424;28;20417;-72
2021/11/07 04:38:34;;;;;;;10.07;9.30;;;11.70;99.90;;;;;;5015035;28;20175;-72
2021/11/07 04:41:00;;;;;;;10.37;9.57;;;11.60;99.90;;;;;;5014194;28;20418;-73
2021/11/07 04:43:26;;;;;;;11.80;10.60;;;11.70;99.90;;;;;;5014318;28;20458;-72
2021/11/07 04:45:52;;;;;;;10.97;10.03;;;11.70;99.90;;;;;;5014186;28;20468;-72
2021/11/07 04:48:19;;;;;;;10.53;9.63;;;11.80;99.90;;;;;;5014914;28;20421;-72
2021/11/07 04:50:46;;;;;;;11.23;10.23;;;11.70;99.90;;;;;;5014435;28;20177;-73
2021/11/07 04:53:15;;;;;;;10.40;9.50;;;11.70;99.90;;;;;;4997284;28;20894;-72
2021/11/07 04:55:43;;;;;;;10.10;9.30;;;11.60;99.90;;;;;;5014694;28;20916;-72
2021/11/07 04:58:10;;;;;;;11.53;10.40;;;11.80;99.90;;;;;;5014013;28;20413;-72
2021/11/07 05:00:37;;;;;;;10.07;9.37;;;11.70;99.90;;;;;;5014614;28;20414;-72
2021/11/07 05:03:05;;;;;;;11.87;10.90;;;11.70;99.90;;;;;;5013912;28;20402;-72
2021/11/07 05:05:31;;;;;;;8.93;8.23;;;11.70;99.90;;;;;;5014441;28;20468;-72
2021/11/07 05:07:58;;;;;;;10.07;9.20;;;11.70;99.90;;;;;;4996396;28;20524;-72
2021/11/07 05:10:24;;;;;;;10.30;9.40;;;11.80;99.90;;;;;;5014328;28;20465;-72
2021/11/07 05:12:50;;;;;;;10.07;9.27;;;11.80;99.90;;;;;;5013785;28;20422;-73
2021/11/07 05:15:16;;;;;;;9.23;8.53;;;11.80;99.90;;;;;;5014285;28;20431;-72
2021/11/07 05:17:42;;;;;;;9.30;8.60;;;11.80;99.90;;;;;;5014233;28;20174;-72
2021/11/07 05:20:09;;;;;;;10.27;9.47;;;11.70;99.90;;;;;;4996221;28;20231;-72
2021/11/07 05:22:39;;;;;;;10.43;9.63;;;11.70;99.90;;;;;;4996674;28;20513;-72
2021/11/07 05:25:06;;;;;;;9.77;8.83;;;11.70;99.90;;;;;;5013461;28;20457;-72
2021/11/07 05:27:33;;;;;;;10.80;9.97;;;11.60;99.90;;;;;;5014071;28;20422;-72
2021/11/07 05:29:59;;;;;;;10.57;9.70;;;11.60;99.90;;;;;;5013216;28;20407;-72
2021/11/07 05:32:25;;;;;;;11.40;10.23;;;11.70;99.90;;;;;;4996646;28;20425;-72
2021/11/07 05:34:50;;;;;;;10.60;9.70;;;11.60;99.90;;;;;;5013381;28;20520;-72
2021/11/07 05:37:16;;;;;;;10.60;9.70;;;11.60;99.90;;;;;;5013945;28;20574;-72
2021/11/07 05:39:43;;;;;;;10.20;9.30;;;11.60;99.90;;;;;;5013645;28;20249;-72
2021/11/07 05:42:10;;;;;;;10.43;9.53;;;11.70;99.90;;;;;;5013012;28;20483;-73
2021/11/07 05:44:37;;;;;;;10.90;10.00;;;11.70;99.90;;;;;;4996181;28;20462;-72
2021/11/07 05:47:03;;;;;;;11.27;10.40;;;11.80;99.90;;;;;;5013113;28;20417;-72
2021/11/07 05:49:29;;;;;;;11.53;10.60;;;11.80;99.90;;;;;;5013795;28;20793;-72
2021/11/07 05:51:54;;;;;;;11.70;10.70;;;11.80;99.90;;;;;;5013097;28;20414;-73
2021/11/07 05:54:20;;;;;;;11.47;10.37;;;11.90;99.90;;;;;;4995513;28;20643;-72
2021/11/07 05:56:46;;;;;;;11.27;10.00;;;11.90;99.90;;;;;;5013862;28;20203;-72
2021/11/07 05:59:12;;;;;;;13.30;10.90;;;11.90;99.90;;;;;;5012975;28;20501;-72
2021/11/07 06:01:37;;;;;;;12.27;11.27;;;11.90;99.90;;;;;;5013250;28;20233;-72
2021/11/07 06:04:04;;;;;;;10.90;10.00;;;11.90;99.90;;;;;;5012938;28;20268;-72
2021/11/07 06:06:31;;;;;;;10.83;9.83;;;11.90;99.90;;;;;;4995860;28;20210;-72
2021/11/07 06:08:56;;;;;;;12.60;11.43;;;11.90;99.90;;;;;;5012785;28;20425;-72
2021/11/07 06:11:22;;;;;;;12.70;11.60;;;12.00;99.90;;;;;;5013457;28;20405;-72
2021/11/07 06:13:48;;;;;;;12.90;11.70;;;12.00;99.90;;;;;;5013283;28;20187;-72
2021/11/07 06:16:14;;;;;;;12.90;11.70;;;12.00;99.90;;;;;;5012730;28;20233;-72
2021/11/07 06:18:40;;;;;;;11.40;10.37;;;12.00;99.90;;;;;;5013174;28;20177;-72
2021/11/07 06:21:08;;;;;;;12.73;11.60;;;12.10;99.90;;;;;;5012611;28;20496;-72
2021/11/07 06:23:34;;;;;;;12.40;11.30;;;12.00;99.90;;;;;;5013079;28;20448;-72
2021/11/07 06:26:01;;;;;;;11.20;10.33;;;12.10;99.90;;;;;;5012666;28;20471;-72
2021/11/07 06:28:27;;;;;;;11.93;10.93;;;12.00;99.90;;;;;;5013082;28;20410;-72
2021/11/07 06:30:53;;;;;;;11.70;10.80;;;12.10;99.90;;;;;;5012460;28;20549;-73
2021/11/07 06:33:19;;;;;;;12.47;11.27;;;12.00;99.90;;;;;;4995449;28;20425;-72
2021/11/07 06:35:46;;;;;;;13.33;12.10;;;12.00;99.90;;;;;;5013089;28;20437;-72
2021/11/07 06:38:12;;;;;;;12.70;11.50;;;12.10;99.90;;;;;;5012288;28;20187;-72
2021/11/07 06:40:39;;;;;;;12.90;11.80;;;12.10;99.90;;;;;;5012877;28;20441;-72
2021/11/07 06:43:07;;;;;;;13.03;11.73;;;12.10;99.90;;;;;;5012409;28;20477;-72
2021/11/07 06:45:34;;;;;;;13.23;11.93;;;12.10;99.90;;;;;;5012799;28;20473;-72
2021/11/07 06:48:00;;;;;;;11.90;10.90;;;12.10;99.90;;;;;;5012331;28;20885;-72
2021/11/07 06:50:27;;;;;;;11.33;10.30;;;12.20;99.90;;;;;;5012808;28;20815;-72
2021/11/07 06:52:53;;;;;;;10.87;9.97;;;12.10;99.90;;;;;;5011963;28;20920;-72
2021/11/07 06:55:19;;;;;;;11.27;10.27;;;12.10;99.90;;;;;;5012842;28;20411;-72
2021/11/07 06:57:47;;;;;;;9.20;8.53;;;12.10;99.90;;;;;;5013016;28;20429;-72
2021/11/07 07:00:17;;;;;;;9.70;8.80;;;12.00;99.90;;;;;;5012154;28;21012;-72
2021/11/07 07:02:43;;;;;;;8.53;7.83;;;12.00;99.90;;;;;;5012757;28;20395;-72
2021/11/07 07:05:11;;;;;;;8.50;7.90;;;12.00;99.90;;;;;;4994438;28;20461;-72
2021/11/07 07:07:41;;;;;;;9.20;8.30;;;12.00;99.90;;;;;;5016632;28;20410;-72
2021/11/07 07:10:10;;;;;;;8.93;8.23;;;12.00;99.90;;;;;;5015902;28;20402;-72
2021/11/07 07:15:12;;;;;;;9.97;9.13;;;12.00;99.90;;;;;;5016009;28;20425;-72
2021/11/07 07:30:41;;;;;;;9.17;8.23;;;12.10;99.90;;;;;;5015424;28;20554;-72
2021/11/07 07:33:15;;;;;;;8.20;7.53;;;12.10;99.90;;;;;;5014943;28;20429;-72
2021/11/07 07:35:41;;;;;;;7.93;7.33;;;12.20;99.90;;;;;;5016310;28;20422;-72
2021/11/07 07:38:06;;;;;;;7.67;7.00;;;12.20;99.90;;;;;;5015318;28;20418;-72
2021/11/07 07:40:32;;;;;;;7.60;7.10;;;12.20;99.90;;;;;;4998234;28;20746;-72
2021/11/07 07:42:58;;;;;;;7.53;6.80;;;12.20;99.90;;;;;;5015441;28;20222;-73
2021/11/07 07:45:25;;;;;;;7.60;6.80;;;12.30;99.90;;;;;;5015989;28;20516;-72
2021/11/07 07:47:51;;;;;;;8.57;7.60;;;12.30;99.90;;;;;;5015729;28;20348;-72
2021/11/07 07:50:20;;;;;;;7.97;7.27;;;12.30;99.90;;;;;;5015339;28;20918;-72
2021/11/07 07:52:47;;;;;;;8.87;7.97;;;12.30;99.90;;;;;;5015943;28;20402;-72
2021/11/07 07:55:12;;;;;;;8.50;7.70;;;12.30;99.90;;;;;;4997793;28;20426;-73
2021/11/07 07:57:40;;;;;;;9.53;8.53;;;12.40;99.90;;;;;;5016044;28;20749;-72
2021/11/07 08:00:11;;;;;;;8.93;8.23;;;12.50;99.90;;;;;;5015127;28;20411;-72
2021/11/07 08:02:37;;;;;;;8.57;7.87;;;12.50;99.90;;;;;;5015416;28;20817;-72
2021/11/07 08:05:05;;;;;;;8.20;7.47;;;12.50;99.90;;;;;;5014951;28;20500;-72
2021/11/07 08:07:30;;;;;;;8.70;7.77;;;12.60;99.90;;;;;;4981937;28;20409;-72
2021/11/07 08:09:56;;;;;;;9.73;7.47;;;12.60;99.90;;;;;;5015424;28;20543;-73
2021/11/07 08:12:23;;;;;;;8.93;8.20;;;12.70;99.90;;;;;;5015714;28;20176;-72
2021/11/07 08:14:49;;;;;;;9.10;8.33;;;12.70;99.90;;;;;;5015170;28;20429;-72
2021/11/07 08:17:15;;;;;;;8.97;8.10;;;12.70;99.90;;;;;;5014061;28;20751;-72
2021/11/07 08:19:41;;;;;;;9.87;8.77;;;12.70;99.90;;;;;;5015447;28;20180;-72
2021/11/07 08:22:08;;;;;;;8.27;7.50;;;12.70;99.90;;;;;;4997015;28;20410;-73
2021/11/07 08:24:38;;;;;;;8.60;7.80;;;12.80;99.90;;;;;;5015308;28;20503;-72
2021/11/07 08:27:05;;;;;;;8.27;7.47;;;12.80;99.90;;;;;;5014661;28;20534;-72
2021/11/07 08:29:31;;;;;;;8.10;7.40;;;12.80;99.90;;;;;;5015177;28;20406;-72
2021/11/07 08:31:59;;;;;;;8.80;8.07;;;12.80;99.90;;;;;;5015141;28;20422;-72
2021/11/07 08:34:28;;;;;;;9.03;8.23;;;12.80;99.90;;;;;;5014774;28;20419;-72
2021/11/07 08:37:13;;;;;;;8.60;7.67;;;12.70;99.90;;;;;;5015054;28;20450;-72
2021/11/07 08:39:59;;;;;;;9.87;8.20;;;12.80;99.90;;;;;;5015459;28;20396;-72
2021/11/07 08:42:34;;;;;;;8.57;7.97;;;12.80;99.90;;;;;;5014666;28;20973;-72
2021/11/07 09:02:03;;;;;;;12.83;11.63;;;12.60;99.90;;;;;;5014459;28;20421;-72
2021/11/07 09:04:41;;;;;;;14.30;10.83;;;12.60;99.90;;;;;;5013869;28;20750;-72
2021/11/07 09:07:18;;;;;;;14.20;11.80;;;12.60;99.90;;;;;;5013978;28;20396;-72
2021/11/07 09:09:45;;;;;;;12.67;11.43;;;12.60;99.90;;;;;;5014504;28;20408;-72
2021/11/07 09:12:12;;;;;;;13.60;12.20;;;12.60;99.90;;;;;;5014117;28;20410;-72
2021/11/07 09:14:39;;;;;;;12.90;11.70;;;12.60;99.90;;;;;;5014664;28;20426;-72
2021/11/07 09:17:08;;;;;;;14.67;11.47;;;12.70;99.90;;;;;;4996236;28;20428;-73
2021/11/07 09:19:37;;;;;;;13.13;11.80;;;12.60;99.90;;;;;;5014036;28;20406;-72
2021/11/07 09:22:48;;;;;;;16.50;12.37;;;12.70;99.90;;;;;;5013619;28;20411;-73
2021/11/07 09:25:06;;;;;;;15.17;12.77;;;12.70;99.90;;;;;;5005870;28;20473;-72
2021/11/07 09:30:42;;;;;;;13.33;11.70;;;12.70;99.90;;;;;;5002068;28;20984;-72
2021/11/07 09:33:24;;;;;;;15.50;11.77;;;12.60;99.90;;;;;;5013268;28;20826;-72
2021/11/07 09:38:33;;;;;;;16.77;9.93;;;12.60;99.90;;;;;;5013132;28;20760;-72
2021/11/07 09:46:47;;;;;;;10.80;9.10;;;12.80;99.90;;;;;;4980495;28;20505;-72
2021/11/07 09:49:22;;;;;;;10.87;7.90;;;12.80;99.90;;;;;;5013191;28;20441;-72
2021/11/07 09:52:00;;;;;;;13.70;7.77;;;12.80;99.90;;;;;;4996155;28;20411;-72
2021/11/07 09:54:29;;;;;;;13.87;7.40;;;12.80;99.90;;;;;;5013108;28;20754;-72
2021/11/07 09:56:56;;;;;;;12.40;6.30;;;13.10;99.90;;;;;;5013683;28;20499;-72
2021/11/07 09:59:24;;;;;;;12.30;6.40;;;13.40;99.90;;;;;;5012907;28;20434;-72
2021/11/07 10:01:51;;;;;;;11.23;5.70;;;13.90;99.90;;;;;;5013561;28;20437;-72
2021/11/07 10:04:18;;;;;;;8.70;5.27;;;14.40;99.90;;;;;;5013140;28;20423;-72
2021/11/07 10:06:47;;;;;;;8.43;5.67;;;15.00;99.90;;;;;;5013402;28;20514;-72
2021/11/07 10:09:27;;;;;;;7.20;5.07;;;15.30;99.90;;;;;;5012446;28;20416;-72
2021/11/07 10:12:09;;;;;;;11.17;5.37;;;15.70;99.90;;;;;;5013296;28;20431;-72
2021/11/07 10:14:56;;;;;;;9.90;5.60;;;16.10;99.40;;;;;;5013122;28;20897;-72
2021/11/07 10:17:38;;;;;;;10.53;7.00;;;16.30;98.10;;;;;;5012583;28;20441;-72
2021/11/07 10:20:28;;;;;;;7.67;6.30;;;16.10;97.20;;;;;;5012907;28;20409;-73
2021/11/07 10:23:01;;;;;;;9.70;6.80;;;15.90;97.00;;;;;;5013238;28;20405;-72
2021/11/07 10:25:40;;;;;;;13.37;6.77;;;15.50;97.50;;;;;;5012202;28;20435;-72
2021/11/07 10:28:15;;;;;;;8.53;5.63;;;15.20;98.10;;;;;;5012352;28;20412;-72
2021/11/07 10:30:47;;;;;;;8.80;7.20;;;15.00;98.30;;;;;;5012812;28;20431;-72
2021/11/07 10:33:35;;;;;;;9.80;6.03;;;14.90;98.70;;;;;;5012528;28;20453;-72
2021/11/07 10:36:43;;;;;;;15.23;6.77;;;14.80;99.40;;;;;;5013135;28;20459;-72
2021/11/07 10:52:37;;;;;;;9.27;5.83;;;14.20;99.10;;;;;;5012813;28;20508;-72
2021/11/07 10:55:24;;;;;;;6.90;5.27;;;14.00;98.60;;;;;;4995284;28;20410;-72
2021/11/07 10:58:00;;;;;;;14.13;6.00;;;13.90;98.20;;;;;;5012868;28;20409;-72
2021/11/07 11:00:43;;;;;;;7.63;5.40;;;13.80;98.40;;;;;;4978691;28;20413;-72
2021/11/07 11:03:18;;;;;;;10.93;5.80;;;13.70;98.50;;;;;;5012206;28;20508;-72
2021/11/07 11:05:54;;;;;;;9.37;6.20;;;13.60;98.60;;;;;;5012318;28;20456;-72
2021/11/07 11:08:34;;;;;;;8.77;5.60;;;13.70;98.90;;;;;;5012049;28;20405;-72
2021/11/07 11:11:11;;;;;;;9.60;4.50;;;13.60;99.00;;;;;;4994867;28;20947;-72
2021/11/07 11:27:46;;;;;;;13.63;5.40;;;14.70;98.30;;;;;;5011936;28;20429;-72
2021/11/07 11:33:38;;;;;;;10.70;5.60;;;15.20;95.60;;;;;;5011878;28;20440;-73
2021/11/07 11:38:30;;;;;;;7.43;6.50;;;15.40;95.80;;;;;;5011838;28;20410;-72
2021/11/07 11:41:05;;;;;;;12.03;5.73;;;15.50;96.20;;;;;;5012525;28;20451;-72
2021/11/07 11:43:44;;;;;;;10.23;5.07;;;15.70;95.60;;;;;;5011468;28;20552;-72
2021/11/07 11:46:31;;;;;;;9.30;4.20;;;15.90;95.00;;;;;;5011697;28;20800;-73
2021/11/07 11:52:08;;;;;;;7.13;5.00;;;15.80;93.80;;;;;;5012452;28;20447;-72
2021/11/07 11:55:05;;;;;;;10.13;6.20;;;15.70;93.60;;;;;;5015790;28;20405;-72
2021/11/07 12:00:25;;;;;;;7.83;5.10;;;15.70;94.30;;;;;;5015253;28;20803;-73
2021/11/07 12:06:02;;;;;;;9.27;6.23;;;15.80;94.30;;;;;;5015574;28;20842;-72
2021/11/07 12:14:08;;;;;;;8.07;3.97;;;15.50;93.10;;;;;;5015314;28;20409;-72
2021/11/07 12:17:01;;;;;;;5.13;3.67;;;15.30;92.70;;;;;;4999058;28;20409;-72
2021/11/07 12:19:44;;;;;;;9.07;3.87;;;15.00;92.50;;;;;;5015154;28;20421;-72
2021/11/07 12:22:16;;;;;;;8.50;4.43;;;14.80;92.70;;;;;;5015388;28;20406;-73
2021/11/07 12:24:48;;;;;;;7.50;4.07;;;14.60;93.00;;;;;;5014853;28;20414;-72
2021/11/07 12:27:18;;;;;;;6.27;3.63;;;14.30;93.50;;;;;;4997258;28;20418;-71
2021/11/07 12:29:45;;;;;;;8.23;3.70;;;14.20;94.10;;;;;;5015223;28;20421;-72
2021/11/07 12:32:12;;;;;;;7.40;3.83;;;13.90;94.40;;;;;;5015198;28;20414;-72
2021/11/07 12:40:37;;;;;;;11.60;3.80;;;13.60;94.90;;;;;;5014380;28;20398;-72
2021/11/07 12:43:09;;;;;;;12.23;4.17;;;13.60;95.30;;;;;;5015133;28;20461;-72
2021/11/07 12:45:39;;;;;;;7.43;4.30;;;13.60;95.40;;;;;;5014016;28;20458;-72
2021/11/07 12:48:08;;;;;;;7.90;4.17;;;13.50;95.80;;;;;;5015281;28;20488;-72
2021/11/07 12:51:01;;;;;;;4.73;3.93;;;13.60;96.40;;;;;;5014223;28;20552;-72
2021/11/07 12:53:50;;;;;;;11.30;4.60;;;13.70;96.20;;;;;;5014543;28;20866;-72
2021/11/07 12:56:27;;;;;;;5.23;4.20;;;13.80;96.10;;;;;;5013938;28;20422;-72
2021/11/07 12:58:53;;;;;;;9.53;4.43;;;14.10;96.40;;;;;;5014787;28;20410;-72
2021/11/07 13:01:18;;;;;;;10.40;4.20;;;14.20;96.40;;;;;;5013928;28;20433;-72
2021/11/07 13:03:50;;;;;;;6.17;4.67;;;14.30;95.50;;;;;;5014556;28;20221;-72
2021/11/07 13:06:16;;;;;;;9.60;4.67;;;14.50;95.20;;;;;;5014001;28;20217;-72
2021/11/07 13:08:49;;;;;;;10.53;5.07;;;14.50;94.40;;;;;;5014537;28;20451;-72
2021/11/07 13:11:34;;;;;;;9.10;4.60;;;14.50;94.40;;;;;;5013617;28;20186;-73
2021/11/07 13:14:06;;;;;;;9.83;4.37;;;14.60;94.70;;;;;;5014474;28;20460;-72
2021/11/07 13:16:53;;;;;;;4.37;3.60;;;14.60;94.10;;;;;;5014059;28;20410;-72
2021/11/07 13:27:44;;;;;;;10.07;4.20;;;14.60;93.70;;;;;;5013569;28;20416;-72
2021/11/07 13:30:17;;;;;;;7.40;4.50;;;14.60;93.80;;;;;;4996407;28;20400;-71
2021/11/07 13:32:42;;;;;;;11.00;4.40;;;14.60;93.70;;;;;;5014130;28;20740;-71
2021/11/07 13:35:13;;;;;;;9.03;4.03;;;14.60;94.00;;;;;;5013921;28;20418;-72
2021/11/07 13:37:50;;;;;;;7.33;4.27;;;14.50;93.80;;;;;;5013357;28;20179;-72
2021/11/07 13:40:27;;;;;;;8.80;4.77;;;14.50;94.00;;;;;;5013850;28;20411;-73
2021/11/07 13:43:00;;;;;;;9.50;4.07;;;14.40;94.20;;;;;;5013858;28;20991;-71
2021/11/07 13:45:30;;;;;;;10.07;4.47;;;14.20;94.30;;;;;;5013079;28;20458;-72
2021/11/07 13:48:00;;;;;;;6.00;4.27;;;14.20;94.50;;;;;;5013509;28;20414;-72
2021/11/07 13:50:33;;;;;;;7.67;3.27;;;14.10;94.50;;;;;;5013370;28;20417;-72
2021/11/07 13:53:02;;;;;;;9.23;3.70;;;14.10;94.40;;;;;;5013743;28;20404;-72
2021/11/07 13:55:31;;;;;;;6.47;3.47;;;14.10;94.40;;;;;;5013061;28;20918;-72
2021/11/07 13:58:13;;;;;;;7.83;3.70;;;14.10;94.50;;;;;;5013583;28;20492;-72
2021/11/07 14:00:40;;;;;;;6.40;3.47;;;14.10;94.40;;;;;;5012981;28;20397;-71
2021/11/07 14:03:24;;;;;;;6.57;3.93;;;14.00;94.70;;;;;;5013503;28;20406;-72
2021/11/07 14:06:23;;;;;;;10.57;4.57;;;14.00;94.40;;;;;;5013493;28;20449;-71
2021/11/07 14:08:56;;;;;;;6.27;4.33;;;14.00;94.40;;;;;;5013500;28;20967;-71
2021/11/07 14:11:23;;;;;;;8.60;3.70;;;14.00;94.60;;;;;;5012970;28;20480;-73
2021/11/07 14:14:01;;;;;;;14.27;4.80;;;14.00;94.20;;;;;;5013257;28;20421;-71
2021/11/07 14:16:44;;;;;;;9.93;4.10;;;14.00;94.40;;;;;;5012092;28;20410;-71
2021/11/07 14:19:12;;;;;;;7.63;3.97;;;13.90;94.30;;;;;;5013676;28;20402;-72
2021/11/07 14:21:41;;;;;;;7.60;4.30;;;13.80;94.00;;;;;;5012393;28;20432;-72
2021/11/07 14:24:20;;;;;;;8.07;3.40;;;13.70;94.00;;;;;;5013194;28;20408;-71
2021/11/07 14:26:52;;;;;;;6.33;3.43;;;13.70;94.00;;;;;;4995885;28;20445;-72
2021/11/07 14:29:37;;;;;;;7.00;3.80;;;13.70;94.20;;;;;;5013173;28;20817;-72
2021/11/07 14:32:17;;;;;;;7.27;4.03;;;13.60;94.30;;;;;;5013219;28;20489;-71
2021/11/07 14:35:09;;;;;;;6.47;3.97;;;13.60;94.60;;;;;;5012514;28;20408;-72
2021/11/07 14:40:15;;;;;;;11.37;4.60;;;13.50;96.10;;;;;;5012821;28;20421;-72
2021/11/07 14:43:04;;;;;;;6.70;4.20;;;13.50;97.10;;;;;;5012219;28;20472;-72
2021/11/07 14:53:49;;;;;;;5.67;4.20;;;13.00;99.30;;;;;;5012319;28;20475;-72
2021/11/07 14:56:28;;;;;;;5.60;4.80;;;12.80;99.90;;;;;;5012856;28;20439;-71
2021/11/07 14:59:09;;;;;;;6.27;3.80;;;12.60;99.90;;;;;;4995573;28;20415;-71
2021/11/07 15:01:45;;;;;;;5.60;4.20;;;12.50;99.90;;;;;;5012154;28;20402;-72
2021/11/07 15:07:03;;;;;;;6.70;4.40;;;12.20;99.90;;;;;;5011746;28;20540;-72
2021/11/07 15:09:32;;;;;;;5.20;4.07;;;12.00;99.90;;;;;;5012110;28;20463;-72
2021/11/07 15:18:21;;;;;;;7.13;4.70;;;12.00;99.90;;;;;;5012395;28;20403;-72
2021/11/07 15:21:28;;;;;;;5.13;4.40;;;11.90;99.90;;;;;;4995143;28;20426;-71
2021/11/07 15:23:42;;;;;;;6.40;4.30;;;11.90;99.90;;;;;;5008667;28;20422;-73
2021/11/07 15:26:32;;;;;;;7.30;4.50;;;11.80;99.90;;;;;;5012499;28;20476;-73
2021/11/07 15:29:04;;;;;;;8.60;4.63;;;11.70;99.90;;;;;;5016266;28;20412;-73
2021/11/07 15:31:30;;;;;;;10.13;4.60;;;11.70;99.90;;;;;;5015841;28;20879;-73
2021/11/07 15:34:08;;;;;;;7.97;4.77;;;11.70;99.90;;;;;;5016572;28;20890;-73
2021/11/07 15:36:40;;;;;;;5.47;4.70;;;11.70;99.90;;;;;;5015752;28;20394;-72